Time;durP1;ratioP1;P1;durP2;ratioP2;P2;SDS_P1;SDS_P2;PMS_P1;PMS_P2;Temp;Humidity;BMP_temperature;BMP_pressure;BME280_temperature;BME280_humidity;BME280_pressure;Samples;Min_cycle;Max_cycle;Signal;HPM_P1;HPM_P2
2022/05/02 00:02:16;;;;;;;18.55;12.30;;;;;;;7.38;71.74;102069.59;5012485;28;20069;-56
2022/05/02 00:04:42;;;;;;;22.63;11.98;;;;;;;7.32;72.11;102071.81;5012283;28;20396;-57
2022/05/02 00:07:07;;;;;;;18.42;11.98;;;;;;;7.35;72.61;102067.16;5012141;28;20026;-57
2022/05/02 00:09:32;;;;;;;17.77;12.30;;;;;;;7.27;72.91;102069.53;5012082;28;20061;-57
2022/05/02 00:11:58;;;;;;;18.70;13.48;;;;;;;7.22;74.15;102066.38;5011917;28;20495;-57
2022/05/02 00:14:24;;;;;;;18.65;12.35;;;;;;;7.06;73.96;102062.16;5012075;28;20038;-57
2022/05/02 00:16:49;;;;;;;18.67;12.32;;;;;;;7.15;73.68;102062.47;5012132;28;20026;-57
2022/05/02 00:19:14;;;;;;;18.02;12.50;;;;;;;7.12;74.04;102059.09;5012074;28;20037;-57
2022/05/02 00:21:39;;;;;;;23.85;13.32;;;;;;;7.02;73.47;102065.97;5012179;28;20053;-57
2022/05/02 00:24:05;;;;;;;21.08;13.60;;;;;;;7.10;73.57;102058.34;5011760;28;20046;-57
2022/05/02 00:26:30;;;;;;;19.90;13.35;;;;;;;7.08;72.82;102055.00;5012191;28;20034;-57
2022/05/02 00:28:55;;;;;;;19.92;12.70;;;;;;;7.10;72.73;102058.34;5011965;28;20424;-57
2022/05/02 00:31:21;;;;;;;20.63;13.70;;;;;;;7.08;72.57;102057.63;5012104;28;20022;-57
2022/05/02 00:33:46;;;;;;;19.10;13.48;;;;;;;7.04;72.60;102053.53;5011985;28;20021;-57
2022/05/02 00:36:11;;;;;;;23.90;13.50;;;;;;;7.03;72.75;102056.25;5013645;28;20076;-57
2022/05/02 00:38:37;;;;;;;18.75;12.75;;;;;;;7.02;72.43;102050.16;5016105;28;20392;-57
2022/05/02 00:41:03;;;;;;;19.23;14.05;;;;;;;7.07;72.54;102044.53;5015811;28;20033;-57
2022/05/02 00:43:28;;;;;;;19.48;14.00;;;;;;;6.95;74.43;102046.25;5015562;28;20083;-57
2022/05/02 00:45:54;;;;;;;19.58;13.82;;;;;;;6.91;74.10;102042.97;5015764;28;20476;-57
2022/05/02 00:48:20;;;;;;;25.83;14.57;;;;;;;6.98;74.01;102043.41;5015588;28;20034;-57
2022/05/02 00:50:47;;;;;;;21.77;14.77;;;;;;;6.88;73.76;102037.06;5015570;28;20365;-57
2022/05/02 00:53:20;;;;;;;19.05;13.75;;;;;;;6.74;73.96;102036.25;5015566;28;20049;-57
2022/05/02 00:55:45;;;;;;;26.50;15.00;;;;;;;6.64;74.03;102040.47;5015586;28;20079;-57
2022/05/02 00:58:13;;;;;;;22.08;14.50;;;;;;;6.53;75.01;102036.81;5030308;28;20113;-57
2022/05/02 01:00:40;;;;;;;21.63;14.98;;;;;;;6.45;75.09;102036.47;5015518;28;20033;-57
2022/05/02 01:03:08;;;;;;;22.90;14.65;;;;;;;6.55;74.76;102032.25;5014042;28;20068;-57
2022/05/02 01:07:08;;;;;;;19.27;14.13;;;;;;;6.51;74.16;102025.50;5015215;28;20136;-57
2022/05/02 01:08:29;;;;;;;21.90;14.13;;;;;;;6.50;74.72;102034.34;5014865;28;20037;-57
2022/05/02 01:10:56;;;;;;;21.17;14.32;;;;;;;6.52;74.59;102036.91;5015317;28;20460;-57
2022/05/02 01:13:42;;;;;;;20.23;14.07;;;;;;;6.53;74.33;102034.16;5015056;28;20433;-57
2022/05/02 01:16:09;;;;;;;21.70;14.18;;;;;;;6.39;74.39;102024.56;5015062;28;20032;-57
2022/05/02 01:18:36;;;;;;;23.73;14.00;;;;;;;6.49;74.41;102024.78;5014995;28;20056;-57
2022/05/02 01:21:07;;;;;;;25.50;14.98;;;;;;;6.27;75.53;102034.13;5014871;28;20075;-57
2022/05/02 01:23:33;;;;;;;22.30;14.63;;;;;;;6.31;75.56;102030.34;5014728;28;20137;-57
2022/05/02 01:25:58;;;;;;;25.25;14.40;;;;;;;6.35;75.25;102030.16;5015034;28;20025;-57
2022/05/02 01:28:23;;;;;;;20.48;14.75;;;;;;;6.24;75.04;102028.22;5014829;28;20495;-57
2022/05/02 01:30:48;;;;;;;21.77;14.80;;;;;;;6.30;74.73;102023.41;5013442;28;20026;-57
2022/05/02 01:33:14;;;;;;;21.48;15.25;;;;;;;6.25;75.37;102025.50;5014754;28;20413;-57
2022/05/02 01:35:39;;;;;;;21.20;14.93;;;;;;;6.29;75.05;102028.75;5014632;28;20032;-57
2022/05/02 01:38:04;;;;;;;22.92;13.70;;;;;;;6.21;74.73;102028.44;5014634;28;20358;-57
2022/05/02 01:40:29;;;;;;;20.17;14.13;;;;;;;6.12;74.87;102024.63;5014766;28;20022;-57
2022/05/02 01:42:55;;;;;;;20.60;13.80;;;;;;;6.12;75.05;102019.38;5014698;28;20480;-57
2022/05/02 01:45:20;;;;;;;19.50;13.68;;;;;;;6.07;75.52;102010.94;5014438;28;20044;-57
2022/05/02 01:47:45;;;;;;;20.40;14.60;;;;;;;6.07;75.20;102021.47;5013185;28;20045;-57
2022/05/02 01:50:10;;;;;;;21.15;14.70;;;;;;;5.99;75.49;102019.31;5014220;28;20030;-57
2022/05/02 01:52:36;;;;;;;21.83;15.07;;;;;;;5.86;75.98;102019.25;5010943;28;20389;-58
2022/05/02 01:55:01;;;;;;;24.08;15.45;;;;;;;5.92;75.72;102024.13;5000296;28;20049;-57
2022/05/02 01:57:26;;;;;;;22.65;15.63;;;;;;;5.91;75.19;102022.44;5014455;28;20034;-57
2022/05/02 01:59:52;;;;;;;21.80;16.25;;;;;;;5.90;75.77;102015.50;5001754;28;20034;-57
2022/05/02 02:02:17;;;;;;;22.92;15.95;;;;;;;5.81;75.95;102013.47;5010133;28;20572;-57
2022/05/02 02:07:26;;;;;;;27.13;17.05;;;;;;;5.67;76.34;102003.84;5013233;28;20121;-57
2022/05/02 02:09:51;;;;;;;23.80;16.85;;;;;;;5.72;76.76;102012.31;5014056;28;20109;-57
2022/05/02 02:12:17;;;;;;;23.90;16.88;;;;;;;5.72;76.76;102007.88;5014164;28;20414;-57
2022/05/02 02:14:42;;;;;;;22.35;16.52;;;;;;;5.73;76.68;102013.97;5013801;28;20057;-57
2022/05/02 02:17:07;;;;;;;23.55;17.02;;;;;;;5.76;76.86;102014.63;5013805;28;20021;-57
2022/05/02 02:19:33;;;;;;;24.52;16.83;;;;;;;5.81;76.48;102016.13;5013889;28;20448;-57
2022/05/02 02:22:16;;;;;;;30.98;17.15;;;;;;;5.81;75.55;102009.03;5014040;28;20072;-57
2022/05/02 02:24:41;;;;;;;21.15;16.13;;;;;;;5.70;76.03;102020.28;5013781;28;20115;-57
2022/05/02 02:27:07;;;;;;;28.52;16.20;;;;;;;5.64;76.85;102015.44;5013851;28;20038;-57
2022/05/02 02:29:32;;;;;;;22.48;15.85;;;;;;;5.59;77.24;102012.25;5013721;28;20084;-57
2022/05/02 02:31:57;;;;;;;23.90;16.98;;;;;;;5.38;77.78;102010.91;5013628;28;20362;-57
2022/05/02 02:34:22;;;;;;;23.15;17.00;;;;;;;5.39;78.20;102011.75;5013322;28;20498;-57
2022/05/02 02:36:48;;;;;;;22.15;16.92;;;;;;;5.42;77.40;102015.97;5013372;28;20038;-56
2022/05/02 02:39:13;;;;;;;29.05;18.05;;;;;;;5.34;77.44;102013.81;5013024;28;20037;-57
2022/05/02 02:41:38;;;;;;;23.85;16.98;;;;;;;5.37;77.53;102013.63;5011920;28;20037;-57
2022/05/02 02:44:04;;;;;;;24.63;17.25;;;;;;;5.34;77.77;102011.19;5013129;28;20374;-57
2022/05/02 02:46:29;;;;;;;22.77;17.00;;;;;;;5.32;76.91;101999.94;5013056;28;20061;-57
2022/05/02 02:48:54;;;;;;;22.63;16.50;;;;;;;5.22;77.78;102000.50;5012815;28;20083;-57
2022/05/02 02:51:19;;;;;;;21.50;16.33;;;;;;;5.22;77.98;102000.50;5013166;28;20030;-57
2022/05/02 02:53:45;;;;;;;23.63;16.70;;;;;;;5.23;77.92;101996.94;5016905;28;20479;-57
2022/05/02 02:56:10;;;;;;;23.67;16.73;;;;;;;5.22;77.42;101994.41;5022151;28;20030;-57
2022/05/02 02:58:35;;;;;;;22.73;16.35;;;;;;;5.28;77.62;101994.00;5012717;28;20029;-57
2022/05/02 03:01:00;;;;;;;21.73;16.55;;;;;;;5.24;77.18;101990.72;5011471;28;20156;-57
2022/05/02 03:03:27;;;;;;;23.60;16.73;;;;;;;5.20;77.41;101984.00;5011576;28;20026;-57
2022/05/02 03:06:02;;;;;;;24.27;17.17;;;;;;;5.15;77.22;101983.44;5012923;28;20484;-57
2022/05/02 03:08:28;;;;;;;24.65;17.25;;;;;;;5.12;77.48;101988.88;5012959;28;20030;-57
2022/05/02 03:10:55;;;;;;;24.95;17.20;;;;;;;5.10;77.23;101986.34;5012949;28;20108;-57
2022/05/02 03:13:21;;;;;;;23.80;17.43;;;;;;;5.09;78.01;101991.72;5012891;28;20361;-57
2022/05/02 03:15:47;;;;;;;27.60;17.80;;;;;;;5.03;77.56;101986.84;5012962;28;20030;-57
2022/05/02 03:18:12;;;;;;;23.40;16.57;;;;;;;5.03;77.40;101984.22;5013011;28;20022;-57
2022/05/02 03:20:37;;;;;;;26.58;17.45;;;;;;;5.02;77.34;101985.16;5012719;28;20354;-57
2022/05/02 03:23:03;;;;;;;24.45;15.98;;;;;;;5.00;77.16;101979.13;5012774;28;20503;-57
2022/05/02 03:25:28;;;;;;;24.00;16.80;;;;;;;4.96;76.98;101978.50;5012832;28;20029;-57
2022/05/02 03:27:53;;;;;;;25.17;17.87;;;;;;;4.90;77.49;101985.00;5012632;28;20468;-57
2022/05/02 03:30:19;;;;;;;23.83;16.77;;;;;;;4.88;77.61;101978.97;5012601;28;20045;-56
2022/05/02 03:32:44;;;;;;;25.37;17.57;;;;;;;4.85;77.69;101981.81;5012741;28;20029;-57
2022/05/02 03:35:09;;;;;;;25.43;17.13;;;;;;;4.79;77.50;101974.31;5012436;28;20084;-57
2022/05/02 03:37:35;;;;;;;26.50;17.37;;;;;;;4.79;77.11;101984.81;5012489;28;20033;-56
2022/05/02 03:40:00;;;;;;;24.33;17.97;;;;;;;4.71;77.77;101975.63;5012646;28;20057;-57
2022/05/02 03:42:26;;;;;;;26.03;18.47;;;;;;;4.79;77.66;101976.94;5012320;28;20496;-57
2022/05/02 03:44:51;;;;;;;26.30;18.77;;;;;;;4.80;77.27;101978.59;5012577;28;20033;-57
2022/05/02 03:47:17;;;;;;;24.70;18.17;;;;;;;4.71;78.37;101975.63;5012393;28;20073;-55
2022/05/02 03:49:43;;;;;;;25.40;18.37;;;;;;;4.78;78.71;101977.88;5012458;28;20477;-56
2022/05/02 03:52:08;;;;;;;28.50;17.97;;;;;;;4.71;78.00;101969.50;5012245;28;20060;-57
2022/05/02 03:54:34;;;;;;;25.30;18.07;;;;;;;4.67;77.93;101978.50;5021533;28;20061;-57
2022/05/02 03:56:59;;;;;;;25.15;18.63;;;;;;;4.59;78.58;101968.47;5014066;28;20026;-57
2022/05/02 03:59:25;;;;;;;26.88;18.33;;;;;;;4.77;77.56;101973.53;5012366;28;20034;-57
2022/05/02 04:01:51;;;;;;;28.53;19.20;;;;;;;4.68;78.04;101981.06;5004405;28;20037;-57
2022/05/02 04:04:16;;;;;;;24.88;18.25;;;;;;;4.71;78.78;101980.88;5012299;28;20061;-57
2022/05/02 04:06:41;;;;;;;24.10;17.57;;;;;;;4.73;78.63;101979.94;5011360;28;20065;-57
2022/05/02 04:09:07;;;;;;;25.60;18.13;;;;;;;4.68;78.45;101983.69;5012383;28;20512;-56
2022/05/02 04:11:32;;;;;;;28.17;18.70;;;;;;;4.64;78.46;101984.78;5014627;28;20362;-57
2022/05/02 04:13:58;;;;;;;26.20;18.87;;;;;;;4.64;78.72;101984.78;5016264;28;20053;-57
2022/05/02 04:16:23;;;;;;;27.17;19.07;;;;;;;4.54;78.28;101979.25;5014357;28;20127;-57
2022/05/02 04:18:49;;;;;;;26.73;18.97;;;;;;;4.52;78.93;101981.16;5008216;28;20522;-57
2022/05/02 04:21:14;;;;;;;29.67;20.73;;;;;;;4.47;78.66;101977.97;5014687;28;20565;-57
2022/05/02 04:23:39;;;;;;;29.47;19.53;;;;;;;4.55;78.34;101975.69;5015520;28;20054;-58
2022/05/02 04:26:05;;;;;;;29.33;20.20;;;;;;;4.54;78.60;101983.69;5015989;28;20111;-57
2022/05/02 04:28:30;;;;;;;28.27;19.57;;;;;;;4.58;78.79;101980.78;5016007;28;20069;-57
2022/05/02 04:30:56;;;;;;;27.00;20.20;;;;;;;4.56;78.51;101981.81;5015949;28;20091;-57
2022/05/02 04:33:21;;;;;;;27.90;19.63;;;;;;;4.55;78.67;101985.38;5015939;28;20503;-57
2022/05/02 04:35:47;;;;;;;30.83;20.33;;;;;;;4.53;78.29;101979.34;5015985;28;20503;-56
2022/05/02 04:38:12;;;;;;;29.50;21.13;;;;;;;4.51;79.10;101974.22;5015757;28;20037;-57
2022/05/02 04:40:38;;;;;;;36.17;19.70;;;;;;;4.46;79.26;101980.66;5015925;28;20097;-57
2022/05/02 04:43:03;;;;;;;26.47;19.23;;;;;;;4.44;78.73;101978.97;5015753;28;20057;-56
2022/05/02 04:45:28;;;;;;;27.87;19.30;;;;;;;4.35;79.30;101974.31;5015569;28;20030;-57
2022/05/02 04:47:53;;;;;;;27.87;20.30;;;;;;;4.31;79.55;101973.63;5015148;28;20021;-57
2022/05/02 04:50:19;;;;;;;30.90;22.43;;;;;;;4.33;80.35;101976.16;5015670;28;20030;-57
2022/05/02 04:52:45;;;;;;;31.03;21.13;;;;;;;4.17;81.15;101977.09;5015594;28;20064;-57
2022/05/02 04:55:10;;;;;;;30.10;20.83;;;;;;;4.28;80.51;101978.22;5015702;28;20472;-57
2022/05/02 04:57:35;;;;;;;32.47;21.77;;;;;;;4.39;80.26;101974.97;5015379;28;20029;-57
2022/05/02 05:00:02;;;;;;;30.23;21.90;;;;;;;4.45;80.08;101979.84;5015517;28;20457;-57
2022/05/02 05:02:27;;;;;;;32.73;22.10;;;;;;;4.54;79.38;101983.69;5015408;28;20030;-56
2022/05/02 05:04:52;;;;;;;30.00;22.77;;;;;;;4.59;79.83;101986.84;5015347;28;20030;-57
2022/05/02 05:07:17;;;;;;;29.53;22.10;;;;;;;4.67;79.66;101995.13;5015656;28;20380;-57
2022/05/02 05:09:43;;;;;;;31.20;22.93;;;;;;;4.74;79.65;101989.50;5015262;28;20037;-57
2022/05/02 05:12:35;;;;;;;31.03;22.07;;;;;;;4.91;79.82;101991.94;5015180;28;20037;-56
2022/05/02 05:18:30;;;;;;;30.33;21.60;;;;;;;5.00;79.92;101989.66;5015055;28;20107;-57
2022/05/02 05:21:04;;;;;;;30.80;21.63;;;;;;;5.01;80.06;101986.09;5014860;28;20483;-57
2022/05/02 05:23:51;;;;;;;29.25;21.65;;;;;;;5.11;79.50;101989.81;5014303;28;20053;-57
2022/05/02 05:26:35;;;;;;;31.20;21.70;;;;;;;5.13;80.10;101990.56;5013930;28;20101;-57
2022/05/02 05:29:34;;;;;;;32.28;22.88;;;;;;;5.18;80.41;101988.50;5013542;28;20507;-57
2022/05/02 05:32:21;;;;;;;28.52;21.73;;;;;;;5.24;80.02;101988.09;5013780;28;20079;-57
2022/05/02 05:34:56;;;;;;;31.27;23.35;;;;;;;5.31;80.77;101987.69;5002049;28;20080;-57
2022/05/02 05:37:49;;;;;;;36.03;24.95;;;;;;;5.35;81.14;101984.81;5013582;28;20037;-57
2022/05/02 05:40:27;;;;;;;32.67;24.00;;;;;;;5.39;81.28;101981.00;5013667;28;20033;-57
2022/05/02 05:43:03;;;;;;;33.83;24.40;;;;;;;5.45;80.85;101969.25;5001836;28;20100;-57
2022/05/02 05:46:07;;;;;;;41.13;25.83;;;;;;;5.62;80.63;101991.84;5013418;28;20034;-57
2022/05/02 05:48:54;;;;;;;39.75;26.15;;;;;;;5.74;81.48;101987.56;5013549;28;20104;-57
2022/05/02 05:51:22;;;;;;;37.72;25.02;;;;;;;5.91;82.00;101985.59;5013701;28;20377;-57
2022/05/02 05:54:15;;;;;;;35.40;24.85;;;;;;;6.03;81.70;101989.22;5013541;28;20176;-57
2022/05/02 05:56:56;;;;;;;38.72;26.70;;;;;;;6.19;81.43;101989.88;5013218;28;20033;-57
2022/05/02 05:59:37;;;;;;;44.28;26.52;;;;;;;6.34;81.16;101989.78;5013468;28;20036;-57
2022/05/02 06:02:16;;;;;;;39.63;27.25;;;;;;;6.44;81.91;101979.44;5013341;28;20623;-57
2022/05/02 06:04:43;;;;;;;38.80;26.65;;;;;;;6.70;81.23;101992.59;5013472;28;20091;-56
2022/05/02 06:07:09;;;;;;;37.42;26.85;;;;;;;6.85;81.29;101986.25;5013283;28;20037;-57
2022/05/02 06:09:36;;;;;;;35.92;26.85;;;;;;;6.98;79.63;101988.03;5013130;28;20038;-57
2022/05/02 06:12:04;;;;;;;34.58;26.10;;;;;;;7.14;78.78;101993.03;5013168;28;20033;-58
2022/05/02 06:14:34;;;;;;;33.83;25.92;;;;;;;7.26;79.09;101989.50;5013057;28;20034;-57
2022/05/02 06:19:48;;;;;;;36.05;26.23;;;;;;;7.44;78.22;101980.38;5013274;28;20510;-57
2022/05/02 06:22:17;;;;;;;35.55;26.25;;;;;;;7.63;77.63;101995.69;5013129;28;20034;-58
2022/05/02 06:24:45;;;;;;;36.22;26.08;;;;;;;7.71;77.56;101988.06;4978668;28;1009825;-57
2022/05/02 06:27:10;;;;;;;34.92;26.15;;;;;;;7.84;76.13;101987.97;5013638;28;20045;-57
2022/05/02 06:29:39;;;;;;;37.33;26.52;;;;;;;7.98;76.99;101999.31;5013799;28;20030;-58
2022/05/02 06:32:10;;;;;;;38.13;26.80;;;;;;;8.05;76.52;101985.50;5013462;28;20036;-57
2022/05/02 06:34:36;;;;;;;36.33;26.23;;;;;;;8.13;76.32;101986.72;5013403;28;20053;-57
2022/05/02 06:37:33;;;;;;;33.50;24.58;;;;;;;8.27;75.71;102001.53;5013578;28;20026;-58
2022/05/02 06:40:01;;;;;;;30.88;24.63;;;;;;;8.37;76.05;101997.22;5004657;28;20028;-58
2022/05/02 06:42:50;;;;;;;36.63;25.85;;;;;;;8.47;75.65;101995.56;5013434;28;20030;-58
2022/05/02 06:45:28;;;;;;;31.40;24.15;;;;;;;8.60;74.96;101995.44;5013492;28;20026;-57
2022/05/02 06:48:28;;;;;;;33.08;23.60;;;;;;;8.74;74.44;101997.03;4992672;28;20062;-58
2022/05/02 06:51:13;;;;;;;31.63;24.42;;;;;;;8.91;75.58;101997.50;5001572;28;20038;-58
2022/05/02 06:53:41;;;;;;;30.00;23.00;;;;;;;9.04;73.72;101996.53;5016667;28;20460;-58
2022/05/02 06:56:21;;;;;;;32.08;23.50;;;;;;;9.08;73.90;101993.50;5023049;28;20033;-58
2022/05/02 06:59:11;;;;;;;28.77;22.77;;;;;;;9.23;73.99;101996.72;5013837;28;20423;-57
2022/05/02 07:01:49;;;;;;;28.65;22.52;;;;;;;9.35;73.60;101996.69;5012951;28;20365;-57
2022/05/02 07:04:20;;;;;;;30.73;22.05;;;;;;;9.45;71.98;101994.13;5013042;28;20057;-58
2022/05/02 07:07:29;;;;;;;31.70;22.98;;;;;;;9.64;73.18;101998.75;5011727;28;20042;-58
2022/05/02 07:10:13;;;;;;;29.25;21.73;;;;;;;9.77;71.55;101994.13;5013126;28;20651;-57
2022/05/02 07:12:49;;;;;;;27.30;21.10;;;;;;;9.86;70.06;101991.69;5013217;28;20535;-57
2022/05/02 07:15:23;;;;;;;26.50;19.85;;;;;;;9.98;69.79;102000.41;5012995;28;20503;-57
2022/05/02 07:18:06;;;;;;;28.48;19.35;;;;;;;10.03;68.66;101999.06;5012946;28;20041;-57
2022/05/02 07:20:42;;;;;;;27.88;19.98;;;;;;;10.05;68.13;101991.81;5013055;28;20034;-57
2022/05/02 07:23:13;;;;;;;25.95;19.25;;;;;;;10.18;67.06;101990.78;5012870;28;20054;-57
2022/05/02 07:25:44;;;;;;;26.63;19.38;;;;;;;10.21;67.04;101987.84;5012938;28;20473;-57
2022/05/02 07:28:45;;;;;;;27.98;19.75;;;;;;;10.38;67.36;101991.72;5012934;28;20036;-57
2022/05/02 07:31:18;;;;;;;25.55;19.00;;;;;;;10.46;67.60;101994.59;5011018;28;20049;-57
2022/05/02 07:33:46;;;;;;;24.17;19.33;;;;;;;10.51;67.19;101990.69;5012677;28;20056;-57
2022/05/02 07:36:15;;;;;;;26.75;20.17;;;;;;;10.71;68.52;101989.78;5012757;28;20026;-57
2022/05/02 07:38:44;;;;;;;25.65;19.75;;;;;;;10.83;66.40;101990.56;5012781;28;20083;-56
2022/05/02 07:41:25;;;;;;;28.27;21.00;;;;;;;10.94;66.35;101986.94;5010786;28;20361;-58
2022/05/02 07:44:01;;;;;;;25.10;18.95;;;;;;;11.08;64.91;101996.34;5012427;28;20026;-57
2022/05/02 07:46:50;;;;;;;25.67;18.70;;;;;;;11.13;64.71;101987.97;5012477;28;20117;-57
2022/05/02 07:49:23;;;;;;;24.88;18.50;;;;;;;11.24;63.42;101992.31;4999668;28;20030;-57
2022/05/02 07:51:51;;;;;;;24.48;17.58;;;;;;;11.32;63.06;101989.81;5012525;28;20045;-58
2022/05/02 07:54:21;;;;;;;24.95;17.25;;;;;;;11.44;61.71;101995.81;5012946;28;20113;-57
2022/05/02 07:56:48;;;;;;;23.52;17.13;;;;;;;11.50;61.13;101997.09;5012298;28;20026;-57
2022/05/02 07:59:15;;;;;;;26.40;16.67;;;;;;;11.57;60.28;101992.91;5011237;28;20058;-57
2022/05/02 08:01:41;;;;;;;22.95;15.50;;;;;;;11.60;58.01;101997.94;5012487;28;20044;-57
2022/05/02 08:04:13;;;;;;;21.55;15.50;;;;;;;11.65;58.60;101985.06;5012932;28;20030;-57
2022/05/02 08:07:02;;;;;;;20.67;15.85;;;;;;;11.82;61.04;101985.34;5012491;28;20407;-57
2022/05/02 08:09:36;;;;;;;21.73;14.75;;;;;;;11.90;56.29;101998.75;5012297;28;20080;-57
2022/05/02 08:12:31;;;;;;;21.73;16.13;;;;;;;11.96;57.66;101986.72;4999506;28;20022;-57
2022/05/02 08:15:15;;;;;;;25.73;15.48;;;;;;;11.96;56.82;101987.56;5012242;28;20030;-57
2022/05/02 08:18:05;;;;;;;23.17;15.68;;;;;;;12.08;57.93;101982.09;5012801;28;20034;-57
2022/05/02 08:20:53;;;;;;;22.45;14.13;;;;;;;12.19;55.27;101987.25;5012869;28;20066;-57
2022/05/02 08:29:28;;;;;;;20.38;13.48;;;;;;;12.42;52.42;101986.91;5012216;28;20404;-57
2022/05/02 08:32:10;;;;;;;20.65;13.27;;;;;;;12.44;52.63;101990.25;5011909;28;20030;-57
2022/05/02 08:34:38;;;;;;;26.02;13.40;;;;;;;12.46;53.59;101990.97;5012404;28;20026;-57
2022/05/02 08:37:28;;;;;;;19.67;13.43;;;;;;;12.65;53.20;101991.88;5011855;28;20444;-57
2022/05/02 08:40:09;;;;;;;21.15;13.85;;;;;;;12.67;54.18;101989.06;5001475;28;20033;-57
2022/05/02 08:43:00;;;;;;;20.77;13.40;;;;;;;12.66;52.51;101988.22;5012282;28;20033;-56
2022/05/02 08:46:02;;;;;;;21.88;14.38;;;;;;;12.65;52.66;101986.56;5010693;28;20045;-57
2022/05/02 08:48:39;;;;;;;20.52;13.77;;;;;;;12.60;52.65;101979.03;4991402;28;20117;-58
2022/05/02 08:51:23;;;;;;;20.95;14.90;;;;;;;12.55;54.68;101991.06;5027016;28;20112;-57
2022/05/02 08:54:22;;;;;;;20.42;14.20;;;;;;;12.61;53.51;101985.16;5012400;28;20026;-57
2022/05/02 08:57:26;;;;;;;20.02;13.27;;;;;;;12.77;53.38;101988.03;5013968;28;20137;-57
2022/05/02 09:00:09;;;;;;;;;;;;;;;12.89;53.99;101986.00;5016013;28;20110;-58
2022/05/02 09:02:53;;;;;;;;;;;;;;;13.03;53.86;101983.84;5015998;28;19919;-57
2022/05/02 09:05:37;;;;;;;;;;;;;;;13.20;53.50;101979.50;5015837;28;19996;-57
2022/05/02 09:08:15;;;;;;;;;;;;;;;13.21;54.18;101975.84;5015910;28;19913;-57
2022/05/02 09:10:58;;;;;;;;;;;;;;;13.31;53.09;101979.31;5015966;28;19976;-57
2022/05/02 09:13:47;;;;;;;;;;;;;;;13.27;52.96;101985.91;5015805;28;19924;-57
2022/05/02 09:16:33;;;;;;;;;;;;;;;13.25;53.00;101971.91;5015026;28;19914;-57
2022/05/02 09:19:21;;;;;;;;;;;;;;;13.35;52.74;101973.66;5015749;28;19920;-57
2022/05/02 09:22:05;;;;;;;;;;;;;;;13.41;51.50;101970.38;5015283;28;19913;-57
2022/05/02 09:24:53;;;;;;;;;;;;;;;13.49;52.47;101967.84;5015397;28;19939;-57
2022/05/02 09:27:31;;;;;;;;;;;;;;;13.63;51.76;101976.28;5015669;28;20346;-57
2022/05/02 09:30:12;;;;;;;;;;;;;;;13.96;49.37;101964.03;5003361;28;20052;-57
2022/05/02 09:32:47;;;;;;;;;;;;;;;13.82;48.67;101967.28;5015306;28;19967;-57
2022/05/02 09:35:35;;;;;;;;;;;;;;;13.83;51.17;101964.41;5015384;28;19913;-57
2022/05/02 09:38:10;;;;;;;;;;;;;;;13.90;51.08;101963.81;5014631;28;19914;-57
2022/05/02 09:40:36;;;;;;;;;;;;;;;14.04;49.93;101960.59;5015155;28;20027;-57
2022/05/02 09:43:06;;;;;;;;;;;;;;;14.17;49.23;101962.00;5015182;28;20343;-57
2022/05/02 09:51:47;;;;;;;;;;;;;;;14.32;49.65;101957.75;5006703;28;19913;-57
2022/05/02 09:56:37;;;;;;;;;;;;;;;14.27;49.50;101949.38;5015271;28;20263;-57
2022/05/02 09:57:01;;;;;;;;;;;;;;;14.27;49.28;101954.72;5014773;28;20287;-57
2022/05/02 09:59:30;;;;;;;;;;;;;;;14.20;48.87;101946.50;5014987;28;19913;-57
2022/05/02 10:02:02;;;;;;;;;;;;;;;14.15;49.20;101947.97;5014629;28;19917;-57
2022/05/02 10:04:27;;;;;;;;;;;;;;;14.08;48.42;101945.09;5014973;28;19928;-57
2022/05/02 10:06:52;;;;;;;;;;;;;;;14.10;48.76;101943.94;5014135;28;19913;-57
2022/05/02 10:09:31;;;;;;;;;;;;;;;14.43;45.99;101947.78;5014326;28;19913;-57
2022/05/02 10:12:03;;;;;;;;;;;;;;;14.34;46.99;101941.56;5014532;28;19980;-58
2022/05/02 10:14:37;;;;;;;;;;;;;;;14.28;47.09;101940.38;5014545;28;19921;-57
2022/05/02 10:17:03;;;;;;;;;;;;;;;14.32;47.07;101944.41;5014466;28;19914;-57
2022/05/02 10:19:50;;;;;;;;;;;;;;;14.36;48.49;101943.06;5014565;28;20406;-57
2022/05/02 10:22:34;;;;;;;;;;;;;;;14.52;48.15;101942.31;5014338;28;20011;-57
2022/05/02 10:25:18;;;;;;;;;;;;;;;14.66;46.82;101938.19;5001588;28;19944;-57
2022/05/02 10:28:02;;;;;;;;;;;;;;;14.84;46.98;101939.94;5014320;28;20032;-57
2022/05/02 10:30:35;;;;;;;;;;;;;;;14.90;46.68;101936.63;5014493;28;19914;-57
2022/05/02 10:33:03;;;;;;;;;;;;;;;14.89;46.61;101940.28;5014014;28;20387;-57
2022/05/02 10:35:28;;;;;;;;;;;;;;;14.94;46.90;101934.47;5014262;28;20016;-57
2022/05/02 10:37:58;;;;;;;;;;;;;;;15.01;45.42;101934.66;5014131;28;20008;-57
2022/05/02 10:40:36;;;;;;;;;;;;;;;14.95;44.99;101929.97;5014203;28;19914;-57
2022/05/02 10:43:06;;;;;;;;;;;;;;;14.70;45.63;101929.88;5014126;28;19952;-57
2022/05/02 10:45:32;;;;;;;;;;;;;;;14.56;45.65;101926.81;5013977;28;19913;-57
2022/05/02 10:48:06;;;;;;;;;;;;;;;14.72;45.26;101919.84;5013798;28;19913;-57
2022/05/02 10:50:37;;;;;;;;;;;;;;;14.78;45.96;101906.72;5013943;28;20012;-57
2022/05/02 10:53:14;;;;;;;;;;;;;;;14.96;44.58;101918.28;5013940;28;19944;-57
2022/05/02 10:55:50;;;;;;;;;;;;;;;15.05;45.81;101910.09;5014238;28;19913;-57
2022/05/02 10:58:17;;;;;;;;;;;;;;;15.25;45.82;101914.31;5013790;28;19919;-57
2022/05/02 11:00:57;;;;;;;;;;;;;;;15.45;43.09;101906.81;5013979;28;20372;-57
2022/05/02 11:03:34;;;;;;;;;;;;;;;15.45;43.07;101904.94;5013586;28;19913;-57
2022/05/02 11:06:08;;;;;;;;;;;;;;;15.68;42.79;101906.09;5013730;28;19918;-57
2022/05/02 11:08:44;;;;;;;;;;;;;;;15.59;44.76;101897.25;5013383;28;19921;-57
2022/05/02 11:11:11;;;;;;;;;;;;;;;15.75;43.54;101901.75;5013829;28;19920;-56
2022/05/02 11:13:50;;;;;;;;;;;;;;;15.77;44.65;101896.22;5000208;28;19920;-57
2022/05/02 11:16:24;;;;;;;;;;;;;;;16.02;42.53;101901.56;5013509;28;19960;-58
2022/05/02 11:22:02;;;;;;;;;;;;;;;15.81;43.60;101890.38;5013770;28;19984;-58
2022/05/02 11:24:37;;;;;;;;;;;;;;;16.12;42.98;101888.78;5013065;28;19917;-58
2022/05/02 11:27:07;;;;;;;;;;;;;;;16.06;43.78;101889.50;5013496;28;20040;-58
2022/05/02 11:29:53;;;;;;;;;;;;;;;16.19;43.37;101894.31;5013656;28;19913;-57
2022/05/02 11:32:37;;;;;;;;;;;;;;;16.21;42.78;101889.59;5012964;28;19917;-58
2022/05/02 11:35:22;;;;;;;;;;;;;;;16.18;43.39;101881.94;5013243;28;20576;-58
2022/05/02 11:38:09;;;;;;;;;;;;;;;16.20;43.49;101874.56;5011055;28;19997;-58
2022/05/02 11:40:41;;;;;;;;;;;;;;;16.47;42.30;101873.25;5012994;28;20323;-58
2022/05/02 11:43:08;;;;;;;;;;;;;;;16.42;41.80;101875.63;5013017;28;19913;-58
2022/05/02 11:45:33;;;;;;;;;;;;;;;16.37;42.46;101880.66;5012888;28;19914;-58
2022/05/02 11:48:06;;;;;;;;;;;;;;;16.41;41.53;101882.00;5012749;28;20588;-58
2022/05/02 11:50:39;;;;;;;;;;;;;;;16.44;41.19;101880.81;5013162;28;19997;-58
2022/05/02 11:53:08;;;;;;;;;;;;;;;16.38;42.79;101877.00;5013150;28;19920;-58
2022/05/02 11:55:34;;;;;;;;;;;;;;;16.44;41.66;101875.47;5012861;28;19960;-58
2022/05/02 11:58:05;;;;;;;;;;;;;;;16.46;39.87;101876.09;5012932;28;19921;-58
2022/05/02 12:00:32;;;;;;;;;;;;;;;16.52;42.25;101873.56;5012780;28;19917;-58
2022/05/02 12:03:10;;;;;;;;;;;;;;;16.65;42.61;101877.50;5011695;28;20404;-58
2022/05/02 12:05:40;;;;;;;;;;;;;;;16.79;39.20;101873.25;5016247;28;19913;-58
2022/05/02 12:08:06;;;;;;;;;;;;;;;16.80;40.36;101870.41;5012844;28;19920;-58
2022/05/02 12:10:41;;;;;;;;;;;;;;;16.84;39.32;101867.34;5012759;28;19913;-58
2022/05/02 12:13:12;;;;;;;;;;;;;;;16.97;39.32;101870.25;5010395;28;19929;-58
2022/05/02 12:16:13;;;;;;;;;;;;;;;16.90;39.79;101870.16;5012326;28;20431;-58
2022/05/02 12:18:38;;;;;;;;;;;;;;;16.85;37.61;101872.53;4988500;28;20276;-58
2022/05/02 12:21:05;;;;;;;;;;;;;;;16.87;39.70;101869.69;5012310;28;19921;-57
2022/05/02 12:23:33;;;;;;;;;;;;;;;16.97;38.03;101870.25;5012596;28;19924;-59
2022/05/02 12:25:59;;;;;;;;;;;;;;;17.01;38.89;101866.22;5012810;28;19913;-58